createdAt,value
2023-01-01T00:02:58.227Z,66.59
2023-01-01T00:08:20.442Z,66.67
2023-01-01T00:13:42.676Z,66.57
2023-01-01T00:19:04.508Z,66.89
2023-01-01T00:24:26.483Z,66.73
2023-01-01T00:29:48.108Z,66.69
2023-01-01T00:35:10.279Z,66.68
2023-01-01T00:40:31.921Z,66.85
2023-01-01T00:45:53.961Z,66.78
2023-01-01T00:51:15.647Z,66.53
2023-01-01T00:56:37.540Z,66.43
2023-01-01T01:01:59.756Z,66.37
2023-01-01T01:07:21.648Z,66.27
2023-01-01T01:12:43.364Z,66.06
2023-01-01T01:18:05.235Z,66.03
2023-01-01T01:23:27.268Z,65.80
2023-01-01T01:28:50.347Z,65.71
2023-01-01T01:34:16.003Z,65.76
2023-01-01T01:39:40.793Z,65.94
2023-01-01T01:45:11.098Z,65.66
2023-01-01T01:50:34.778Z,65.91
2023-01-01T01:56:00.779Z,65.72
2023-01-01T02:01:22.198Z,65.76
2023-01-01T02:06:45.964Z,65.69
2023-01-01T02:12:07.635Z,65.90
2023-01-01T02:17:39.076Z,65.59
2023-01-01T02:23:26.148Z,65.83
2023-01-01T02:29:03.627Z,65.75
2023-01-01T02:34:30.347Z,65.79
2023-01-01T02:39:56.799Z,65.89
2023-01-01T02:45:18.736Z,66.10
2023-01-01T02:50:40.711Z,66.04
2023-01-01T02:56:13.473Z,66.06
2023-01-01T03:01:58.808Z,66.35
2023-01-01T03:07:32.738Z,66.55
2023-01-01T03:13:00.975Z,66.77
2023-01-01T03:18:27.443Z,66.95
2023-01-01T03:23:54.514Z,67.06
2023-01-01T03:29:16.314Z,67.15
2023-01-01T03:34:42.122Z,67.25
2023-01-01T03:40:05.960Z,67.49
2023-01-01T03:45:38.180Z,67.34
2023-01-01T03:51:09.173Z,67.70
2023-01-01T03:56:53.999Z,67.32
2023-01-01T04:02:19.190Z,67.22
2023-01-01T04:13:04.801Z,66.83
2023-01-01T04:18:26.243Z,66.17
2023-01-01T04:23:48.438Z,66.20
2023-01-01T04:29:10.040Z,65.95
2023-01-01T04:34:31.991Z,65.79
2023-01-01T04:39:53.650Z,65.29
2023-01-01T04:45:15.704Z,65.01
2023-01-01T04:50:37.655Z,65.26
2023-01-01T04:56:09.696Z,64.85
2023-01-01T05:01:34.965Z,65.15
2023-01-01T05:06:57.025Z,64.94
2023-01-01T05:12:18.971Z,64.91
2023-01-01T05:17:40.665Z,64.63
2023-01-01T05:23:02.654Z,64.81
2023-01-01T05:28:24.889Z,64.76
2023-01-01T05:33:47.180Z,64.49
2023-01-01T05:39:10.509Z,64.34
2023-01-01T05:44:32.344Z,63.96
2023-01-01T05:49:54.838Z,63.49
2023-01-01T05:55:16.631Z,63.68
2023-01-01T06:00:38.793Z,63.34
2023-01-01T06:06:08.473Z,63.43
2023-01-01T06:11:31.460Z,63.28
2023-01-01T06:16:53.140Z,63.17
2023-01-01T06:22:16.638Z,63.30
2023-01-01T06:27:38.770Z,63.08
2023-01-01T06:33:01.405Z,63.35
2023-01-01T06:38:23.642Z,63.27
2023-01-01T06:43:46.201Z,63.35
2023-01-01T06:49:11.085Z,63.55
2023-01-01T06:54:33.006Z,63.41
2023-01-01T06:59:54.670Z,63.35
2023-01-01T07:05:16.529Z,63.56
2023-01-01T07:10:38.293Z,63.46
2023-01-01T07:16:00.561Z,63.38
2023-01-01T07:21:31.259Z,63.29
2023-01-01T07:26:53.035Z,63.30
2023-01-01T07:32:14.972Z,63.04
2023-01-01T07:37:36.906Z,63.27
2023-01-01T07:42:58.871Z,63.58
2023-01-01T07:48:20.523Z,63.68
2023-01-01T07:53:42.236Z,63.90
2023-01-01T07:59:05.002Z,64.11
2023-01-01T08:04:29.820Z,64.25
2023-01-01T08:09:51.750Z,64.70
2023-01-01T08:15:14.929Z,64.54
2023-01-01T08:20:36.842Z,64.77
2023-01-01T08:26:00.387Z,64.86
2023-01-01T08:31:22.913Z,65.07
2023-01-01T08:36:44.736Z,65.32
2023-01-01T08:42:12.239Z,65.38
2023-01-01T08:47:34.763Z,65.31
2023-01-01T08:52:58.999Z,65.18
2023-01-01T08:58:20.676Z,65.03
2023-01-01T09:03:42.524Z,64.84
2023-01-01T09:09:04.187Z,64.61
2023-01-01T09:14:26.015Z,64.36
2023-01-01T09:19:50.060Z,64.21
2023-01-01T09:25:11.985Z,63.45
2023-01-01T09:30:34.905Z,63.21
2023-01-01T09:36:12.057Z,62.91
2023-01-01T09:41:42.959Z,62.58
2023-01-01T09:47:06.363Z,62.04
2023-01-01T09:52:41.516Z,61.73
2023-01-01T09:58:03.460Z,61.31
2023-01-01T10:03:27.928Z,60.65
2023-01-01T10:09:09.881Z,59.94
2023-01-01T10:14:37.083Z,59.36
2023-01-01T10:20:10.440Z,59.16
2023-01-01T10:25:34.162Z,58.95
2023-01-01T10:31:16.509Z,58.33
2023-01-01T10:36:38.786Z,57.85
2023-01-01T10:42:01.327Z,57.50
2023-01-01T10:47:28.866Z,57.33
2023-01-01T10:52:56.454Z,56.61
2023-01-01T10:58:51.020Z,55.98
2023-01-01T11:04:15.900Z,56.22
2023-01-01T11:09:39.635Z,55.82
2023-01-01T11:15:01.880Z,55.30
2023-01-01T11:20:23.692Z,55.06
2023-01-01T11:26:09.255Z,54.97
2023-01-01T11:31:37.116Z,54.43
2023-01-01T11:37:14.471Z,54.58
2023-01-01T11:42:37.173Z,54.53
2023-01-01T11:48:01.318Z,54.52
2023-01-01T11:53:23.114Z,54.58
2023-01-01T11:58:55.119Z,54.35
2023-01-01T12:04:25.291Z,54.18
2023-01-01T12:10:03.920Z,54.33
2023-01-01T12:16:08.171Z,54.47
2023-01-01T12:21:31.343Z,54.60
2023-01-01T12:27:23.560Z,54.76
2023-01-01T12:33:08.213Z,54.93
2023-01-01T12:38:52.127Z,54.99
2023-01-01T12:44:32.253Z,54.89
2023-01-01T12:49:57.667Z,54.93
2023-01-01T12:55:38.072Z,54.55
2023-01-01T13:01:07.453Z,54.49
2023-01-01T13:06:38.575Z,54.41
2023-01-01T13:12:05.155Z,54.61
2023-01-01T13:17:29.339Z,54.55
2023-01-01T13:22:51.068Z,54.86
2023-01-01T13:28:13.330Z,55.17
2023-01-01T13:33:37.160Z,55.37
2023-01-01T13:39:07.650Z,55.76
2023-01-01T13:44:29.628Z,56.05
2023-01-01T13:50:23.948Z,56.24
2023-01-01T13:55:54.687Z,56.44
2023-01-01T14:01:30.722Z,56.71
2023-01-01T14:06:54.843Z,56.92
2023-01-01T14:12:21.261Z,57.20
2023-01-01T14:17:44.033Z,57.45
2023-01-01T14:23:16.448Z,58.12
2023-01-01T14:28:38.458Z,58.57
2023-01-01T14:34:01.896Z,58.73
2023-01-01T14:39:28.414Z,58.42
2023-01-01T14:44:50.934Z,58.34
2023-01-01T14:50:19.447Z,58.53
2023-01-01T14:55:43.640Z,58.85
2023-01-01T15:01:23.404Z,58.98
2023-01-01T15:06:45.524Z,59.49
2023-01-01T15:12:12.681Z,59.81
2023-01-01T15:17:45.990Z,60.12
2023-01-01T15:23:14.960Z,60.51
2023-01-01T15:28:36.707Z,60.96
2023-01-01T15:33:58.797Z,61.32
2023-01-01T15:39:21.743Z,61.65
2023-01-01T15:44:44.643Z,62.10
2023-01-01T15:50:09.085Z,62.29
2023-01-01T15:55:33.483Z,62.45
2023-01-01T16:01:00.702Z,62.34
2023-01-01T16:06:27.537Z,62.66
2023-01-01T16:11:54.348Z,62.70
2023-01-01T16:17:17.970Z,62.88
2023-01-01T16:22:39.656Z,63.09
2023-01-01T16:28:02.275Z,63.18
2023-01-01T16:33:24.383Z,63.50
2023-01-01T16:38:58.177Z,63.61
2023-01-01T16:44:24.394Z,64.18
2023-01-01T16:49:49.452Z,64.23
2023-01-01T16:55:11.043Z,64.40
2023-01-01T17:00:32.926Z,64.92
2023-01-01T17:05:54.961Z,65.13
2023-01-01T17:11:17.796Z,65.44
2023-01-01T17:16:40.384Z,65.59
2023-01-01T17:22:04.595Z,65.95
2023-01-01T17:27:26.100Z,66.00
2023-01-01T17:32:50.404Z,66.11
2023-01-01T17:38:12.287Z,66.48
2023-01-01T17:43:35.503Z,66.69
2023-01-01T17:48:57.612Z,66.99
2023-01-01T17:54:19.688Z,67.19
2023-01-01T17:59:41.833Z,67.13
2023-01-01T18:05:07.167Z,67.21
2023-01-01T18:10:28.803Z,67.58
2023-01-01T18:15:50.522Z,67.88
2023-01-01T18:21:14.599Z,67.88
2023-01-01T18:26:37.770Z,67.96
2023-01-01T18:31:59.339Z,68.07
2023-01-01T18:37:22.768Z,68.48
2023-01-01T18:42:50.561Z,68.66
2023-01-01T18:48:13.215Z,69.03
2023-01-01T18:53:34.886Z,69.25
2023-01-01T18:58:57.165Z,69.40
2023-01-01T19:04:19.719Z,69.54
2023-01-01T19:09:41.800Z,70.01
2023-01-01T19:15:18.845Z,69.94
2023-01-01T19:20:40.309Z,70.00
2023-01-01T19:26:04.382Z,70.06
2023-01-01T19:31:26.469Z,70.15
2023-01-01T19:36:48.833Z,70.43
2023-01-01T19:42:11.511Z,70.30
2023-01-01T19:47:33.452Z,70.28
2023-01-01T19:52:55.294Z,70.23
2023-01-01T19:58:19.918Z,70.04
2023-01-01T20:03:57.620Z,70.04
2023-01-01T20:09:19.448Z,70.31
2023-01-01T20:14:41.263Z,70.09
2023-01-01T20:20:02.870Z,70.00
2023-01-01T20:25:24.884Z,70.01
2023-01-01T20:30:46.949Z,70.11
2023-01-01T20:36:27.827Z,69.82
2023-01-01T20:41:50.175Z,69.84
2023-01-01T20:47:12.948Z,69.76
2023-01-01T20:52:35.018Z,69.77
2023-01-01T20:57:57.239Z,69.68
2023-01-01T21:03:20.904Z,69.62
2023-01-01T21:08:46.636Z,69.74
2023-01-01T21:14:12.227Z,69.77
2023-01-01T21:19:36.463Z,69.98
2023-01-01T21:25:24.103Z,69.97
2023-01-01T21:30:55.444Z,70.31
2023-01-01T21:36:20.073Z,70.56
2023-01-01T21:41:41.971Z,70.50
2023-01-01T21:47:16.384Z,70.80
2023-01-01T21:52:42.696Z,71.07
2023-01-01T21:58:41.537Z,71.33
2023-01-01T22:04:09.552Z,71.52
2023-01-01T22:09:42.196Z,71.70
2023-01-01T22:15:38.776Z,71.95
2023-01-01T22:21:02.797Z,72.07
2023-01-01T22:26:27.972Z,72.12
2023-01-01T22:31:57.897Z,71.96
2023-01-01T22:37:22.864Z,72.15
2023-01-01T22:42:44.678Z,72.06
2023-01-01T22:48:07.578Z,72.22
2023-01-01T22:53:29.180Z,72.24
2023-01-01T22:58:56.831Z,72.44
2023-01-01T23:04:19.136Z,72.70
2023-01-01T23:09:41.732Z,72.59
2023-01-01T23:15:23.195Z,72.69
2023-01-01T23:20:44.894Z,72.76
2023-01-01T23:26:08.454Z,72.83
2023-01-01T23:31:30.119Z,72.78
2023-01-01T23:36:53.412Z,72.84
2023-01-01T23:42:15.240Z,73.13
2023-01-01T23:47:37.171Z,73.19
2023-01-01T23:52:59.111Z,73.41
2023-01-01T23:58:20.539Z,73.43
